sensor_id;sensor_type;location;lat;lon;timestamp;P1;durP1;ratioP1;P2;durP2;ratioP2
68509;SDS011;55512;50.102;19.958;2023-04-06T00:01:37;10.50;;;4.40;;
68509;SDS011;55512;50.102;19.958;2023-04-06T00:04:04;11.90;;;4.90;;
68509;SDS011;55512;50.102;19.958;2023-04-06T00:06:30;15.80;;;7.00;;
68509;SDS011;55512;50.102;19.958;2023-04-06T00:08:55;11.20;;;5.30;;
68509;SDS011;55512;50.102;19.958;2023-04-06T00:11:22;10.60;;;4.60;;
68509;SDS011;55512;50.102;19.958;2023-04-06T00:13:47;16.30;;;6.20;;
68509;SDS011;55512;50.102;19.958;2023-04-06T00:16:13;14.30;;;5.50;;
68509;SDS011;55512;50.102;19.958;2023-04-06T00:18:39;10.50;;;5.20;;
68509;SDS011;55512;50.102;19.958;2023-04-06T00:21:05;12.70;;;5.40;;
68509;SDS011;55512;50.102;19.958;2023-04-06T00:23:30;13.40;;;5.70;;
68509;SDS011;55512;50.102;19.958;2023-04-06T00:25:56;12.40;;;6.40;;
68509;SDS011;55512;50.102;19.958;2023-04-06T00:28:21;14.00;;;6.70;;
68509;SDS011;55512;50.102;19.958;2023-04-06T00:30:51;14.60;;;6.60;;
68509;SDS011;55512;50.102;19.958;2023-04-06T00:33:18;12.00;;;5.60;;
68509;SDS011;55512;50.102;19.958;2023-04-06T00:35:44;13.00;;;6.60;;
68509;SDS011;55512;50.102;19.958;2023-04-06T00:38:11;11.00;;;6.00;;
68509;SDS011;55512;50.102;19.958;2023-04-06T00:40:37;11.10;;;6.30;;
68509;SDS011;55512;50.102;19.958;2023-04-06T00:43:05;10.80;;;5.20;;
68509;SDS011;55512;50.102;19.958;2023-04-06T00:45:30;12.00;;;5.60;;
68509;SDS011;55512;50.102;19.958;2023-04-06T00:47:57;13.50;;;5.80;;
68509;SDS011;55512;50.102;19.958;2023-04-06T00:50:22;13.30;;;6.30;;
68509;SDS011;55512;50.102;19.958;2023-04-06T00:52:48;11.00;;;4.70;;
68509;SDS011;55512;50.102;19.958;2023-04-06T00:55:13;13.00;;;5.70;;
68509;SDS011;55512;50.102;19.958;2023-04-06T00:57:39;14.30;;;6.40;;
68509;SDS011;55512;50.102;19.958;2023-04-06T01:00:05;11.20;;;4.70;;
68509;SDS011;55512;50.102;19.958;2023-04-06T01:02:31;11.00;;;5.50;;
68509;SDS011;55512;50.102;19.958;2023-04-06T01:04:57;13.40;;;6.60;;
68509;SDS011;55512;50.102;19.958;2023-04-06T01:07:22;13.20;;;5.90;;
68509;SDS011;55512;50.102;19.958;2023-04-06T01:09:48;9.80;;;4.50;;
68509;SDS011;55512;50.102;19.958;2023-04-06T01:12:13;13.90;;;7.20;;
68509;SDS011;55512;50.102;19.958;2023-04-06T01:14:39;10.10;;;4.90;;
68509;SDS011;55512;50.102;19.958;2023-04-06T01:17:04;17.60;;;8.20;;
68509;SDS011;55512;50.102;19.958;2023-04-06T01:19:30;14.30;;;5.60;;
68509;SDS011;55512;50.102;19.958;2023-04-06T01:21:56;12.10;;;5.40;;
68509;SDS011;55512;50.102;19.958;2023-04-06T01:24:21;12.20;;;5.20;;
68509;SDS011;55512;50.102;19.958;2023-04-06T01:26:47;13.30;;;5.70;;
68509;SDS011;55512;50.102;19.958;2023-04-06T01:29:12;12.20;;;5.40;;
68509;SDS011;55512;50.102;19.958;2023-04-06T01:31:38;13.80;;;5.50;;
68509;SDS011;55512;50.102;19.958;2023-04-06T01:34:04;13.40;;;6.20;;
68509;SDS011;55512;50.102;19.958;2023-04-06T01:36:30;13.50;;;7.20;;
68509;SDS011;55512;50.102;19.958;2023-04-06T01:38:56;14.60;;;5.90;;
68509;SDS011;55512;50.102;19.958;2023-04-06T01:41:21;7.70;;;4.10;;
68509;SDS011;55512;50.102;19.958;2023-04-06T01:43:48;12.40;;;5.90;;
68509;SDS011;55512;50.102;19.958;2023-04-06T01:46:14;16.80;;;6.60;;
68509;SDS011;55512;50.102;19.958;2023-04-06T01:48:41;15.20;;;6.20;;
68509;SDS011;55512;50.102;19.958;2023-04-06T01:51:07;13.00;;;6.40;;
68509;SDS011;55512;50.102;19.958;2023-04-06T01:53:32;14.20;;;6.20;;
68509;SDS011;55512;50.102;19.958;2023-04-06T01:55:58;10.20;;;4.80;;
68509;SDS011;55512;50.102;19.958;2023-04-06T01:58:23;12.40;;;5.50;;
68509;SDS011;55512;50.102;19.958;2023-04-06T02:00:48;14.70;;;5.50;;
68509;SDS011;55512;50.102;19.958;2023-04-06T02:03:14;12.30;;;4.70;;
68509;SDS011;55512;50.102;19.958;2023-04-06T02:05:40;10.90;;;5.40;;
68509;SDS011;55512;50.102;19.958;2023-04-06T02:08:05;11.40;;;4.70;;
68509;SDS011;55512;50.102;19.958;2023-04-06T02:10:33;18.10;;;7.80;;
68509;SDS011;55512;50.102;19.958;2023-04-06T02:13:00;11.60;;;5.30;;
68509;SDS011;55512;50.102;19.958;2023-04-06T02:15:26;15.20;;;6.40;;
68509;SDS011;55512;50.102;19.958;2023-04-06T02:17:52;12.90;;;5.30;;
68509;SDS011;55512;50.102;19.958;2023-04-06T02:20:18;16.10;;;6.80;;
68509;SDS011;55512;50.102;19.958;2023-04-06T02:22:44;15.30;;;7.20;;
68509;SDS011;55512;50.102;19.958;2023-04-06T02:25:10;13.50;;;4.80;;
68509;SDS011;55512;50.102;19.958;2023-04-06T02:27:36;14.60;;;8.30;;
68509;SDS011;55512;50.102;19.958;2023-04-06T02:30:05;11.90;;;5.70;;
68509;SDS011;55512;50.102;19.958;2023-04-06T02:32:31;12.80;;;5.10;;
68509;SDS011;55512;50.102;19.958;2023-04-06T02:34:56;14.40;;;6.60;;
68509;SDS011;55512;50.102;19.958;2023-04-06T02:37:22;10.70;;;5.00;;
68509;SDS011;55512;50.102;19.958;2023-04-06T02:39:49;9.30;;;4.50;;
68509;SDS011;55512;50.102;19.958;2023-04-06T02:42:15;11.60;;;5.60;;
68509;SDS011;55512;50.102;19.958;2023-04-06T02:44:41;8.70;;;4.10;;
68509;SDS011;55512;50.102;19.958;2023-04-06T02:47:07;13.80;;;6.50;;
68509;SDS011;55512;50.102;19.958;2023-04-06T02:49:33;9.00;;;3.50;;
68509;SDS011;55512;50.102;19.958;2023-04-06T02:51:58;12.00;;;5.90;;
68509;SDS011;55512;50.102;19.958;2023-04-06T02:54:23;11.00;;;4.60;;
68509;SDS011;55512;50.102;19.958;2023-04-06T02:56:49;11.40;;;5.00;;
68509;SDS011;55512;50.102;19.958;2023-04-06T02:59:14;10.60;;;4.40;;
68509;SDS011;55512;50.102;19.958;2023-04-06T03:01:40;10.90;;;5.20;;
68509;SDS011;55512;50.102;19.958;2023-04-06T03:04:05;11.10;;;4.80;;
68509;SDS011;55512;50.102;19.958;2023-04-06T03:06:31;14.50;;;6.70;;
68509;SDS011;55512;50.102;19.958;2023-04-06T03:08:56;14.00;;;5.30;;
68509;SDS011;55512;50.102;19.958;2023-04-06T03:11:22;10.00;;;5.00;;
68509;SDS011;55512;50.102;19.958;2023-04-06T03:13:47;10.10;;;4.50;;
68509;SDS011;55512;50.102;19.958;2023-04-06T03:16:13;9.90;;;4.70;;
68509;SDS011;55512;50.102;19.958;2023-04-06T03:18:38;10.30;;;4.60;;
68509;SDS011;55512;50.102;19.958;2023-04-06T03:21:04;8.30;;;4.00;;
68509;SDS011;55512;50.102;19.958;2023-04-06T03:23:29;19.20;;;7.30;;
68509;SDS011;55512;50.102;19.958;2023-04-06T03:25:55;11.30;;;5.00;;
68509;SDS011;55512;50.102;19.958;2023-04-06T03:28:20;14.00;;;4.40;;
68509;SDS011;55512;50.102;19.958;2023-04-06T03:30:46;12.00;;;5.50;;
68509;SDS011;55512;50.102;19.958;2023-04-06T03:33:11;10.70;;;4.50;;
68509;SDS011;55512;50.102;19.958;2023-04-06T03:35:37;13.30;;;5.90;;
68509;SDS011;55512;50.102;19.958;2023-04-06T03:38:03;11.80;;;5.30;;
68509;SDS011;55512;50.102;19.958;2023-04-06T03:40:32;12.00;;;5.40;;
68509;SDS011;55512;50.102;19.958;2023-04-06T03:42:58;13.10;;;5.20;;
68509;SDS011;55512;50.102;19.958;2023-04-06T03:45:23;12.70;;;6.70;;
68509;SDS011;55512;50.102;19.958;2023-04-06T03:47:49;13.50;;;5.20;;
68509;SDS011;55512;50.102;19.958;2023-04-06T03:50:15;15.40;;;6.10;;
68509;SDS011;55512;50.102;19.958;2023-04-06T03:52:40;18.70;;;9.60;;
68509;SDS011;55512;50.102;19.958;2023-04-06T03:55:06;14.50;;;7.30;;
68509;SDS011;55512;50.102;19.958;2023-04-06T03:57:32;14.10;;;7.70;;
68509;SDS011;55512;50.102;19.958;2023-04-06T03:59:58;15.20;;;7.70;;
68509;SDS011;55512;50.102;19.958;2023-04-06T04:02:23;16.10;;;7.80;;
68509;SDS011;55512;50.102;19.958;2023-04-06T04:04:49;12.80;;;6.30;;
68509;SDS011;55512;50.102;19.958;2023-04-06T04:07:14;13.00;;;5.80;;
68509;SDS011;55512;50.102;19.958;2023-04-06T04:09:40;15.90;;;7.50;;
68509;SDS011;55512;50.102;19.958;2023-04-06T04:12:06;10.90;;;5.20;;
68509;SDS011;55512;50.102;19.958;2023-04-06T04:14:31;12.70;;;6.00;;
68509;SDS011;55512;50.102;19.958;2023-04-06T04:16:57;14.40;;;6.90;;
68509;SDS011;55512;50.102;19.958;2023-04-06T04:19:22;16.70;;;7.70;;
68509;SDS011;55512;50.102;19.958;2023-04-06T04:21:48;13.50;;;6.90;;
68509;SDS011;55512;50.102;19.958;2023-04-06T04:24:14;12.60;;;6.00;;
68509;SDS011;55512;50.102;19.958;2023-04-06T04:26:39;16.40;;;6.60;;
68509;SDS011;55512;50.102;19.958;2023-04-06T04:29:05;15.50;;;6.50;;
68509;SDS011;55512;50.102;19.958;2023-04-06T04:31:31;15.90;;;7.60;;
68509;SDS011;55512;50.102;19.958;2023-04-06T04:33:59;14.70;;;7.30;;
68509;SDS011;55512;50.102;19.958;2023-04-06T04:36:25;17.90;;;7.80;;
68509;SDS011;55512;50.102;19.958;2023-04-06T04:38:51;17.80;;;8.00;;
68509;SDS011;55512;50.102;19.958;2023-04-06T04:41:17;17.30;;;8.30;;
68509;SDS011;55512;50.102;19.958;2023-04-06T04:43:43;16.30;;;7.90;;
68509;SDS011;55512;50.102;19.958;2023-04-06T04:46:09;14.10;;;8.10;;
68509;SDS011;55512;50.102;19.958;2023-04-06T04:48:34;22.10;;;8.40;;
68509;SDS011;55512;50.102;19.958;2023-04-06T04:51:00;16.10;;;6.70;;
68509;SDS011;55512;50.102;19.958;2023-04-06T04:53:26;15.50;;;7.80;;
68509;SDS011;55512;50.102;19.958;2023-04-06T04:55:51;16.30;;;7.50;;
68509;SDS011;55512;50.102;19.958;2023-04-06T04:58:17;18.30;;;7.50;;
68509;SDS011;55512;50.102;19.958;2023-04-06T05:00:47;9.40;;;5.30;;
68509;SDS011;55512;50.102;19.958;2023-04-06T05:03:18;15.20;;;7.40;;
68509;SDS011;55512;50.102;19.958;2023-04-06T05:05:47;20.80;;;8.20;;
68509;SDS011;55512;50.102;19.958;2023-04-06T05:08:12;18.10;;;8.20;;
68509;SDS011;55512;50.102;19.958;2023-04-06T05:10:38;17.10;;;8.30;;
68509;SDS011;55512;50.102;19.958;2023-04-06T05:13:03;19.90;;;9.20;;
68509;SDS011;55512;50.102;19.958;2023-04-06T05:15:29;22.40;;;8.80;;
68509;SDS011;55512;50.102;19.958;2023-04-06T05:17:55;16.20;;;8.00;;
68509;SDS011;55512;50.102;19.958;2023-04-06T05:20:20;14.10;;;7.90;;
68509;SDS011;55512;50.102;19.958;2023-04-06T05:22:46;16.00;;;8.30;;
68509;SDS011;55512;50.102;19.958;2023-04-06T05:25:13;19.10;;;7.70;;
68509;SDS011;55512;50.102;19.958;2023-04-06T05:27:39;21.30;;;10.10;;
68509;SDS011;55512;50.102;19.958;2023-04-06T05:30:06;14.50;;;7.80;;
68509;SDS011;55512;50.102;19.958;2023-04-06T05:32:32;19.30;;;10.10;;
68509;SDS011;55512;50.102;19.958;2023-04-06T05:34:58;16.00;;;7.80;;
68509;SDS011;55512;50.102;19.958;2023-04-06T05:37:23;16.20;;;8.20;;
68509;SDS011;55512;50.102;19.958;2023-04-06T05:39:49;16.60;;;7.20;;
68509;SDS011;55512;50.102;19.958;2023-04-06T05:42:15;15.40;;;8.00;;
68509;SDS011;55512;50.102;19.958;2023-04-06T05:44:41;16.00;;;8.10;;
68509;SDS011;55512;50.102;19.958;2023-04-06T05:47:06;13.80;;;6.00;;
68509;SDS011;55512;50.102;19.958;2023-04-06T05:49:31;16.20;;;8.10;;
68509;SDS011;55512;50.102;19.958;2023-04-06T05:51:57;18.50;;;7.90;;
68509;SDS011;55512;50.102;19.958;2023-04-06T05:54:22;16.50;;;7.40;;
68509;SDS011;55512;50.102;19.958;2023-04-06T05:56:48;12.90;;;6.00;;
68509;SDS011;55512;50.102;19.958;2023-04-06T05:59:13;15.20;;;7.70;;
68509;SDS011;55512;50.102;19.958;2023-04-06T06:01:39;14.10;;;7.80;;
68509;SDS011;55512;50.102;19.958;2023-04-06T06:04:04;17.60;;;8.30;;
68509;SDS011;55512;50.102;19.958;2023-04-06T06:06:30;17.40;;;7.20;;
68509;SDS011;55512;50.102;19.958;2023-04-06T06:08:56;17.60;;;6.90;;
68509;SDS011;55512;50.102;19.958;2023-04-06T06:11:26;13.40;;;6.30;;
68509;SDS011;55512;50.102;19.958;2023-04-06T06:13:52;14.20;;;6.60;;
68509;SDS011;55512;50.102;19.958;2023-04-06T06:16:18;9.60;;;5.00;;
68509;SDS011;55512;50.102;19.958;2023-04-06T06:18:44;12.30;;;6.30;;
68509;SDS011;55512;50.102;19.958;2023-04-06T06:21:09;15.00;;;5.90;;
68509;SDS011;55512;50.102;19.958;2023-04-06T06:23:37;9.70;;;3.30;;
68509;SDS011;55512;50.102;19.958;2023-04-06T06:26:03;13.30;;;6.90;;
68509;SDS011;55512;50.102;19.958;2023-04-06T06:28:29;14.00;;;6.70;;
68509;SDS011;55512;50.102;19.958;2023-04-06T06:30:55;12.50;;;6.00;;
68509;SDS011;55512;50.102;19.958;2023-04-06T06:33:20;16.50;;;6.80;;
68509;SDS011;55512;50.102;19.958;2023-04-06T06:35:46;10.30;;;4.60;;
68509;SDS011;55512;50.102;19.958;2023-04-06T06:38:11;7.30;;;4.20;;
68509;SDS011;55512;50.102;19.958;2023-04-06T06:40:37;12.90;;;7.10;;
68509;SDS011;55512;50.102;19.958;2023-04-06T06:43:02;12.60;;;6.30;;
68509;SDS011;55512;50.102;19.958;2023-04-06T06:45:28;11.90;;;5.30;;
68509;SDS011;55512;50.102;19.958;2023-04-06T06:47:54;10.50;;;4.50;;
68509;SDS011;55512;50.102;19.958;2023-04-06T06:50:20;8.60;;;3.50;;
68509;SDS011;55512;50.102;19.958;2023-04-06T06:52:46;13.60;;;6.30;;
68509;SDS011;55512;50.102;19.958;2023-04-06T06:55:11;9.90;;;4.90;;
68509;SDS011;55512;50.102;19.958;2023-04-06T06:57:37;9.90;;;3.30;;
68509;SDS011;55512;50.102;19.958;2023-04-06T07:00:04;11.80;;;5.60;;
68509;SDS011;55512;50.102;19.958;2023-04-06T07:02:31;14.80;;;6.80;;
68509;SDS011;55512;50.102;19.958;2023-04-06T07:04:56;10.30;;;4.30;;
68509;SDS011;55512;50.102;19.958;2023-04-06T07:07:22;11.70;;;6.10;;
68509;SDS011;55512;50.102;19.958;2023-04-06T07:09:47;9.70;;;4.10;;
68509;SDS011;55512;50.102;19.958;2023-04-06T07:12:13;12.40;;;5.00;;
68509;SDS011;55512;50.102;19.958;2023-04-06T07:14:38;10.60;;;4.80;;
68509;SDS011;55512;50.102;19.958;2023-04-06T07:17:04;10.10;;;4.60;;
68509;SDS011;55512;50.102;19.958;2023-04-06T07:19:30;9.60;;;4.00;;
68509;SDS011;55512;50.102;19.958;2023-04-06T07:21:55;12.50;;;5.50;;
68509;SDS011;55512;50.102;19.958;2023-04-06T07:24:21;12.90;;;7.00;;
68509;SDS011;55512;50.102;19.958;2023-04-06T07:26:46;9.40;;;3.90;;
68509;SDS011;55512;50.102;19.958;2023-04-06T07:29:12;10.00;;;4.20;;
68509;SDS011;55512;50.102;19.958;2023-04-06T07:31:37;8.80;;;3.70;;
68509;SDS011;55512;50.102;19.958;2023-04-06T07:34:03;17.50;;;8.30;;
68509;SDS011;55512;50.102;19.958;2023-04-06T07:36:29;12.20;;;6.20;;
68509;SDS011;55512;50.102;19.958;2023-04-06T07:38:54;5.60;;;3.10;;
68509;SDS011;55512;50.102;19.958;2023-04-06T07:41:20;11.50;;;5.40;;
68509;SDS011;55512;50.102;19.958;2023-04-06T07:43:45;11.00;;;4.70;;
68509;SDS011;55512;50.102;19.958;2023-04-06T07:46:11;8.30;;;3.40;;
68509;SDS011;55512;50.102;19.958;2023-04-06T07:48:36;11.70;;;5.90;;
68509;SDS011;55512;50.102;19.958;2023-04-06T07:51:04;9.60;;;4.50;;
68509;SDS011;55512;50.102;19.958;2023-04-06T07:53:30;10.80;;;5.90;;
68509;SDS011;55512;50.102;19.958;2023-04-06T07:55:56;9.10;;;4.80;;
68509;SDS011;55512;50.102;19.958;2023-04-06T07:58:22;9.00;;;4.10;;
68509;SDS011;55512;50.102;19.958;2023-04-06T08:00:48;9.70;;;5.30;;
68509;SDS011;55512;50.102;19.958;2023-04-06T08:03:13;11.10;;;5.50;;
68509;SDS011;55512;50.102;19.958;2023-04-06T08:05:39;15.50;;;6.00;;
68509;SDS011;55512;50.102;19.958;2023-04-06T08:08:05;13.70;;;5.30;;
68509;SDS011;55512;50.102;19.958;2023-04-06T08:10:30;9.00;;;4.90;;
68509;SDS011;55512;50.102;19.958;2023-04-06T08:12:56;10.10;;;4.70;;
68509;SDS011;55512;50.102;19.958;2023-04-06T08:15:22;9.20;;;4.50;;
68509;SDS011;55512;50.102;19.958;2023-04-06T08:17:47;8.40;;;3.90;;
68509;SDS011;55512;50.102;19.958;2023-04-06T08:20:12;6.30;;;3.20;;
68509;SDS011;55512;50.102;19.958;2023-04-06T08:22:38;7.20;;;3.50;;
68509;SDS011;55512;50.102;19.958;2023-04-06T08:25:04;9.60;;;3.40;;
68509;SDS011;55512;50.102;19.958;2023-04-06T08:27:29;11.90;;;5.10;;
68509;SDS011;55512;50.102;19.958;2023-04-06T08:29:55;6.50;;;2.90;;
68509;SDS011;55512;50.102;19.958;2023-04-06T08:32:20;5.50;;;2.30;;
68509;SDS011;55512;50.102;19.958;2023-04-06T08:34:46;8.60;;;3.50;;
68509;SDS011;55512;50.102;19.958;2023-04-06T08:37:12;7.70;;;3.50;;
68509;SDS011;55512;50.102;19.958;2023-04-06T08:39:37;8.00;;;2.90;;
68509;SDS011;55512;50.102;19.958;2023-04-06T08:42:03;8.30;;;4.10;;
68509;SDS011;55512;50.102;19.958;2023-04-06T08:44:29;8.40;;;3.50;;
68509;SDS011;55512;50.102;19.958;2023-04-06T08:46:57;8.20;;;3.20;;
68509;SDS011;55512;50.102;19.958;2023-04-06T08:49:24;9.20;;;4.40;;
68509;SDS011;55512;50.102;19.958;2023-04-06T08:51:50;9.10;;;4.70;;
68509;SDS011;55512;50.102;19.958;2023-04-06T08:54:16;7.50;;;3.10;;
68509;SDS011;55512;50.102;19.958;2023-04-06T08:56:42;7.40;;;2.90;;
68509;SDS011;55512;50.102;19.958;2023-04-06T08:59:09;8.30;;;4.20;;
68509;SDS011;55512;50.102;19.958;2023-04-06T09:01:39;7.80;;;3.20;;
68509;SDS011;55512;50.102;19.958;2023-04-06T09:04:08;7.90;;;3.10;;
68509;SDS011;55512;50.102;19.958;2023-04-06T09:06:36;7.60;;;3.50;;
68509;SDS011;55512;50.102;19.958;2023-04-06T09:09:02;24.00;;;5.30;;
68509;SDS011;55512;50.102;19.958;2023-04-06T09:11:28;7.40;;;2.70;;
68509;SDS011;55512;50.102;19.958;2023-04-06T09:13:55;5.40;;;2.30;;
68509;SDS011;55512;50.102;19.958;2023-04-06T09:16:22;6.40;;;3.50;;
68509;SDS011;55512;50.102;19.958;2023-04-06T09:18:49;8.90;;;4.60;;
68509;SDS011;55512;50.102;19.958;2023-04-06T09:21:19;9.00;;;3.60;;
68509;SDS011;55512;50.102;19.958;2023-04-06T09:23:45;9.20;;;2.80;;
68509;SDS011;55512;50.102;19.958;2023-04-06T09:26:12;8.40;;;3.70;;
68509;SDS011;55512;50.102;19.958;2023-04-06T09:28:58;7.80;;;3.10;;
68509;SDS011;55512;50.102;19.958;2023-04-06T09:31:28;8.80;;;3.00;;
68509;SDS011;55512;50.102;19.958;2023-04-06T09:33:55;7.90;;;3.70;;
68509;SDS011;55512;50.102;19.958;2023-04-06T09:36:32;5.20;;;2.20;;
68509;SDS011;55512;50.102;19.958;2023-04-06T09:39:02;8.90;;;4.00;;
68509;SDS011;55512;50.102;19.958;2023-04-06T09:41:35;5.70;;;2.30;;
68509;SDS011;55512;50.102;19.958;2023-04-06T09:44:06;8.60;;;3.40;;
68509;SDS011;55512;50.102;19.958;2023-04-06T09:46:40;7.80;;;2.30;;
68509;SDS011;55512;50.102;19.958;2023-04-06T09:49:08;8.60;;;3.50;;
68509;SDS011;55512;50.102;19.958;2023-04-06T09:52:03;8.00;;;3.50;;
68509;SDS011;55512;50.102;19.958;2023-04-06T09:54:32;7.70;;;3.10;;
68509;SDS011;55512;50.102;19.958;2023-04-06T10:00:03;9.30;;;4.70;;
68509;SDS011;55512;50.102;19.958;2023-04-06T10:08:14;9.70;;;4.60;;
68509;SDS011;55512;50.102;19.958;2023-04-06T10:10:41;8.10;;;3.60;;
68509;SDS011;55512;50.102;19.958;2023-04-06T10:13:10;11.20;;;4.30;;
68509;SDS011;55512;50.102;19.958;2023-04-06T10:15:38;8.60;;;3.90;;
68509;SDS011;55512;50.102;19.958;2023-04-06T10:18:04;10.50;;;5.70;;
68509;SDS011;55512;50.102;19.958;2023-04-06T10:20:57;9.30;;;3.80;;
68509;SDS011;55512;50.102;19.958;2023-04-06T10:23:46;10.50;;;5.80;;
68509;SDS011;55512;50.102;19.958;2023-04-06T10:26:16;13.10;;;6.00;;
68509;SDS011;55512;50.102;19.958;2023-04-06T10:28:46;12.50;;;6.10;;
68509;SDS011;55512;50.102;19.958;2023-04-06T10:31:14;8.40;;;4.00;;
68509;SDS011;55512;50.102;19.958;2023-04-06T10:33:41;8.80;;;3.80;;
68509;SDS011;55512;50.102;19.958;2023-04-06T10:36:24;11.00;;;5.70;;
68509;SDS011;55512;50.102;19.958;2023-04-06T10:39:05;8.30;;;4.00;;
68509;SDS011;55512;50.102;19.958;2023-04-06T10:41:42;11.60;;;4.80;;
68509;SDS011;55512;50.102;19.958;2023-04-06T10:44:22;10.00;;;5.30;;
68509;SDS011;55512;50.102;19.958;2023-04-06T10:46:54;10.50;;;4.40;;
68509;SDS011;55512;50.102;19.958;2023-04-06T10:49:27;8.50;;;3.40;;
68509;SDS011;55512;50.102;19.958;2023-04-06T10:51:53;10.60;;;5.00;;
68509;SDS011;55512;50.102;19.958;2023-04-06T10:54:25;10.40;;;5.40;;
68509;SDS011;55512;50.102;19.958;2023-04-06T10:56:52;8.20;;;3.50;;
68509;SDS011;55512;50.102;19.958;2023-04-06T10:59:21;6.90;;;3.30;;
68509;SDS011;55512;50.102;19.958;2023-04-06T11:01:47;8.00;;;3.40;;
68509;SDS011;55512;50.102;19.958;2023-04-06T11:04:19;7.10;;;2.90;;
68509;SDS011;55512;50.102;19.958;2023-04-06T11:06:47;10.90;;;4.40;;
68509;SDS011;55512;50.102;19.958;2023-04-06T11:09:34;8.80;;;4.00;;
68509;SDS011;55512;50.102;19.958;2023-04-06T11:12:01;7.00;;;4.40;;
68509;SDS011;55512;50.102;19.958;2023-04-06T11:14:27;8.50;;;3.40;;
68509;SDS011;55512;50.102;19.958;2023-04-06T11:16:52;8.00;;;3.40;;
68509;SDS011;55512;50.102;19.958;2023-04-06T11:19:18;8.70;;;3.50;;
68509;SDS011;55512;50.102;19.958;2023-04-06T11:21:46;7.30;;;3.40;;
68509;SDS011;55512;50.102;19.958;2023-04-06T11:24:18;9.40;;;3.60;;
68509;SDS011;55512;50.102;19.958;2023-04-06T11:26:52;10.00;;;4.80;;
68509;SDS011;55512;50.102;19.958;2023-04-06T11:29:27;11.80;;;4.80;;
68509;SDS011;55512;50.102;19.958;2023-04-06T11:31:58;6.50;;;2.90;;
68509;SDS011;55512;50.102;19.958;2023-04-06T11:34:25;7.80;;;3.50;;
68509;SDS011;55512;50.102;19.958;2023-04-06T11:36:58;9.70;;;4.50;;
68509;SDS011;55512;50.102;19.958;2023-04-06T11:39:27;9.10;;;4.60;;
68509;SDS011;55512;50.102;19.958;2023-04-06T11:41:59;9.70;;;5.10;;
68509;SDS011;55512;50.102;19.958;2023-04-06T11:44:43;9.00;;;3.40;;
68509;SDS011;55512;50.102;19.958;2023-04-06T11:47:12;8.30;;;3.80;;
68509;SDS011;55512;50.102;19.958;2023-04-06T11:49:40;9.70;;;4.20;;
68509;SDS011;55512;50.102;19.958;2023-04-06T11:52:15;10.10;;;5.00;;
68509;SDS011;55512;50.102;19.958;2023-04-06T11:54:42;9.00;;;4.40;;
68509;SDS011;55512;50.102;19.958;2023-04-06T11:57:08;8.40;;;4.50;;
68509;SDS011;55512;50.102;19.958;2023-04-06T11:59:34;8.60;;;4.00;;
68509;SDS011;55512;50.102;19.958;2023-04-06T12:02:04;10.20;;;5.00;;
68509;SDS011;55512;50.102;19.958;2023-04-06T12:04:30;7.60;;;3.80;;
68509;SDS011;55512;50.102;19.958;2023-04-06T12:06:56;10.00;;;4.80;;
68509;SDS011;55512;50.102;19.958;2023-04-06T12:09:22;8.80;;;3.80;;
68509;SDS011;55512;50.102;19.958;2023-04-06T12:11:47;7.90;;;4.10;;
68509;SDS011;55512;50.102;19.958;2023-04-06T12:14:13;12.10;;;6.00;;
68509;SDS011;55512;50.102;19.958;2023-04-06T12:16:39;9.20;;;4.50;;
68509;SDS011;55512;50.102;19.958;2023-04-06T12:19:06;10.50;;;5.50;;
68509;SDS011;55512;50.102;19.958;2023-04-06T12:21:32;10.80;;;4.70;;
68509;SDS011;55512;50.102;19.958;2023-04-06T12:24:00;9.00;;;4.50;;
68509;SDS011;55512;50.102;19.958;2023-04-06T12:26:26;10.40;;;5.20;;
68509;SDS011;55512;50.102;19.958;2023-04-06T12:28:52;10.40;;;5.20;;
68509;SDS011;55512;50.102;19.958;2023-04-06T12:31:20;10.40;;;5.00;;
68509;SDS011;55512;50.102;19.958;2023-04-06T12:33:48;10.10;;;5.10;;
68509;SDS011;55512;50.102;19.958;2023-04-06T12:36:15;9.80;;;4.90;;
68509;SDS011;55512;50.102;19.958;2023-04-06T12:38:44;9.50;;;4.90;;
68509;SDS011;55512;50.102;19.958;2023-04-06T12:41:11;9.80;;;5.30;;
68509;SDS011;55512;50.102;19.958;2023-04-06T12:43:38;9.50;;;4.60;;
68509;SDS011;55512;50.102;19.958;2023-04-06T12:46:05;12.40;;;5.00;;
68509;SDS011;55512;50.102;19.958;2023-04-06T12:48:31;7.30;;;3.90;;
68509;SDS011;55512;50.102;19.958;2023-04-06T12:50:58;12.10;;;6.20;;
68509;SDS011;55512;50.102;19.958;2023-04-06T12:53:25;11.80;;;6.10;;
68509;SDS011;55512;50.102;19.958;2023-04-06T12:55:52;11.80;;;5.90;;
68509;SDS011;55512;50.102;19.958;2023-04-06T12:58:21;15.00;;;6.40;;
68509;SDS011;55512;50.102;19.958;2023-04-06T13:00:48;7.20;;;3.10;;
68509;SDS011;55512;50.102;19.958;2023-04-06T13:03:15;11.60;;;5.80;;
68509;SDS011;55512;50.102;19.958;2023-04-06T13:05:48;9.30;;;5.10;;
68509;SDS011;55512;50.102;19.958;2023-04-06T13:08:18;12.30;;;5.80;;
68509;SDS011;55512;50.102;19.958;2023-04-06T13:10:50;13.20;;;6.40;;
68509;SDS011;55512;50.102;19.958;2023-04-06T13:13:20;9.90;;;3.80;;
68509;SDS011;55512;50.102;19.958;2023-04-06T13:15:50;10.30;;;5.60;;
68509;SDS011;55512;50.102;19.958;2023-04-06T13:18:17;12.90;;;6.30;;
68509;SDS011;55512;50.102;19.958;2023-04-06T13:20:42;11.90;;;7.00;;
68509;SDS011;55512;50.102;19.958;2023-04-06T13:23:08;12.00;;;6.10;;
68509;SDS011;55512;50.102;19.958;2023-04-06T13:25:34;12.40;;;6.10;;
68509;SDS011;55512;50.102;19.958;2023-04-06T13:28:00;11.40;;;6.00;;
68509;SDS011;55512;50.102;19.958;2023-04-06T13:30:26;9.70;;;5.10;;
68509;SDS011;55512;50.102;19.958;2023-04-06T13:32:51;12.50;;;5.70;;
68509;SDS011;55512;50.102;19.958;2023-04-06T13:35:17;11.70;;;6.20;;
68509;SDS011;55512;50.102;19.958;2023-04-06T13:37:44;14.00;;;7.10;;
68509;SDS011;55512;50.102;19.958;2023-04-06T13:40:10;13.90;;;6.90;;
68509;SDS011;55512;50.102;19.958;2023-04-06T13:42:36;13.00;;;6.60;;
68509;SDS011;55512;50.102;19.958;2023-04-06T13:45:05;11.40;;;5.60;;
68509;SDS011;55512;50.102;19.958;2023-04-06T13:47:31;10.20;;;5.70;;
68509;SDS011;55512;50.102;19.958;2023-04-06T13:49:57;15.10;;;6.80;;
68509;SDS011;55512;50.102;19.958;2023-04-06T13:52:22;14.10;;;7.00;;
68509;SDS011;55512;50.102;19.958;2023-04-06T13:54:48;9.50;;;6.00;;
68509;SDS011;55512;50.102;19.958;2023-04-06T13:57:15;13.60;;;7.10;;
68509;SDS011;55512;50.102;19.958;2023-04-06T13:59:41;14.90;;;7.20;;
68509;SDS011;55512;50.102;19.958;2023-04-06T14:02:09;14.60;;;7.20;;
68509;SDS011;55512;50.102;19.958;2023-04-06T14:04:35;13.50;;;7.50;;
68509;SDS011;55512;50.102;19.958;2023-04-06T14:07:02;14.90;;;8.00;;
68509;SDS011;55512;50.102;19.958;2023-04-06T14:09:29;13.70;;;7.20;;
68509;SDS011;55512;50.102;19.958;2023-04-06T14:11:56;13.50;;;6.50;;
68509;SDS011;55512;50.102;19.958;2023-04-06T14:14:22;14.20;;;8.60;;
68509;SDS011;55512;50.102;19.958;2023-04-06T14:16:48;12.50;;;7.10;;
68509;SDS011;55512;50.102;19.958;2023-04-06T14:19:15;16.10;;;8.40;;
68509;SDS011;55512;50.102;19.958;2023-04-06T14:21:43;15.70;;;8.40;;
68509;SDS011;55512;50.102;19.958;2023-04-06T14:24:10;14.70;;;7.00;;
68509;SDS011;55512;50.102;19.958;2023-04-06T14:26:37;14.30;;;7.30;;
68509;SDS011;55512;50.102;19.958;2023-04-06T14:29:04;13.70;;;7.30;;
68509;SDS011;55512;50.102;19.958;2023-04-06T14:31:31;15.30;;;8.50;;
68509;SDS011;55512;50.102;19.958;2023-04-06T14:33:57;13.60;;;7.70;;